Time;durP1;ratioP1;P1;durP2;ratioP2;P2;SDS_P1;SDS_P2;PMS_P1;PMS_P2;Temp;Humidity;BMP_temperature;BMP_pressure;BME280_temperature;BME280_humidity;BME280_pressure;Samples;Min_cycle;Max_cycle;Signal;HPM_P1;HPM_P2
2024/03/28 00:13:30;;;;;;;;;;;;;;;12.12;65.03;97536.63;130479;1294;25363;-90
2024/03/28 00:18:06;;;;;;;;;;;;;;;;;;;;;
2024/03/28 00:45:19;;;;;;;;;;;;;;;;;;;;;
2024/03/28 00:57:43;;;;;;;;;;;;;;;12.00;65.29;97470.08;130973;1298;22504;-86
2024/03/28 01:09:44;;;;;;;;;;;;;;;;;;;;;
2024/03/28 02:07:12;;;;;;;;;;;;;;;12.40;65.49;97415.98;130833;1304;22680;-86
2024/03/28 02:18:41;;;;;;;;;;;;;;;;;;;;;
2024/03/28 02:27:05;;;;;;;;;;;;;;;;;;;;;
2024/03/28 02:30:25;;;;;;;;;;;;;;;;;;;;;
2024/03/28 02:39:17;;;;;;;;;;;;;;;;;;;;;
2024/03/28 02:59:43;;;;;;;;;;;;;;;12.71;64.89;97398.48;130894;1298;25253;-88
2024/03/28 03:06:43;;;;;;;;;;;;;;;;;;;;;
2024/03/28 03:34:46;;;;;;;;;;;;;;;;;;;;;
2024/03/28 03:38:27;;;;;;;;;;;;;;;12.50;66.19;97371.08;130744;1306;25601;-88
2024/03/28 03:50:04;;;;;;;;;;;;;;;;;;;;;
2024/03/28 04:06:35;;;;;;;;;;;;;;;12.44;67.28;97369.82;131024;1303;22635;-88
2024/03/28 04:14:48;;;;;;;;;;;;;;;12.42;67.50;97373.10;130389;1309;22584;-88
2024/03/28 04:18:22;;;;;;;;;;;;;;;;;;;;;
2024/03/28 04:47:09;;;;;;;;;;;;;;;12.54;68.57;97363.27;130173;1306;24417;-86
2024/03/28 05:02:50;;;;;;;;;;;;;;;12.88;68.72;97359.31;130477;1307;22656;-87
2024/03/28 05:51:16;;;;;;;;;;;;;;;;;;;;;
2024/03/28 05:59:28;;;;;;;;;;;;;;;;;;;;;
2024/03/28 06:10:34;;;;;;;;;;;;;;;13.72;67.82;97356.27;130757;1304;22606;-87
2024/03/28 06:15:02;;;;;;;;;;;;;;;13.68;67.88;97354.71;129641;1313;22544;-87
2024/03/28 06:18:17;;;;;;;;;;;;;;;;;;;;;
2024/03/28 06:22:43;;;;;;;;;;;;;;;;;;;;;
2024/03/28 06:42:36;;;;;;;;;;;;;;;13.67;68.35;97367.70;130019;1305;22544;-87
2024/03/28 06:46:09;;;;;;;;;;;;;;;13.75;68.17;97378.58;130760;1299;25246;-87
2024/03/28 06:53:45;;;;;;;;;;;;;;;;;;;;;
2024/03/28 07:01:49;;;;;;;;;;;;;;;13.75;68.73;97384.52;130568;1301;22619;-87
2024/03/28 07:05:40;;;;;;;;;;;;;;;;;;;;;
2024/03/28 07:33:58;;;;;;;;;;;;;;;13.43;69.86;97408.92;127557;1324;25343;-87
2024/03/28 07:37:50;;;;;;;;;;;;;;;;;;;;;
2024/03/28 07:41:11;;;;;;;;;;;;;;;13.29;69.19;97450.11;130372;1299;23038;-84
2024/03/28 07:44:15;;;;;;;;;;;;;;;13.14;68.72;97449.20;130460;1300;22583;-85
2024/03/28 07:47:27;;;;;;;;;;;;;;;;;;;;;
2024/03/28 07:54:55;;;;;;;;;;;;;;;12.71;68.23;97438.92;130529;1301;22538;-87
2024/03/28 07:57:56;;;;;;;;;;;;;;;12.62;67.82;97444.86;130574;1301;22541;-83
2024/03/28 08:01:54;;;;;;;;;;;;;;;12.56;67.88;97445.90;130428;1297;25345;-82
2024/03/28 08:13:32;;;;;;;;;;;;;;;;;;;;;
2024/03/28 08:17:40;;;;;;;;;;;;;;;;;;;;;
2024/03/28 08:21:23;;;;;;;;;;;;;;;12.21;67.98;97476.90;130518;1304;22548;-85
2024/03/28 08:24:55;;;;;;;;;;;;;;;;;;;;;
2024/03/28 08:28:24;;;;;;;;;;;;;;;12.22;68.15;97493.29;129640;1307;22574;-85
2024/03/28 08:31:25;;;;;;;;;;;;;;;12.22;68.30;97508.30;129935;1305;22733;-85
2024/03/28 08:34:28;;;;;;;;;;;;;;;12.19;68.33;97510.27;130510;1301;23199;-85
2024/03/28 08:37:54;;;;;;;;;;;;;;;;;;;;;
2024/03/28 08:41:09;;;;;;;;;;;;;;;12.06;68.47;97533.81;130636;1298;22567;-83
2024/03/28 08:45:00;;;;;;;;;;;;;;;;;;;;;
2024/03/28 08:48:59;;;;;;;;;;;;;;;11.96;68.83;97535.10;130513;1291;24235;-86
2024/03/28 08:56:14;;;;;;;;;;;;;;;;;;;;;
2024/03/28 09:07:53;;;;;;;;;;;;;;;11.38;67.98;97586.52;130806;1301;22537;-83
2024/03/28 09:11:43;;;;;;;;;;;;;;;;;;;;;
2024/03/28 09:15:36;;;;;;;;;;;;;;;;;;;;;
2024/03/28 09:27:16;;;;;;;;;;;;;;;;;;;;;
2024/03/28 09:46:13;;;;;;;;;;;;;;;10.69;68.93;97666.63;131034;1298;22668;-87
2024/03/28 09:49:42;;;;;;;;;;;;;;;10.69;68.90;97667.42;131170;1298;22738;-84
2024/03/28 09:53:17;;;;;;;;;;;;;;;10.69;69.15;97673.00;131323;1298;22597;-86
2024/03/28 10:03:54;;;;;;;;;;;;;;;;;;;;;
2024/03/28 10:11:29;;;;;;;;;;;;;;;10.64;68.39;97697.55;130507;1304;22532;-86
2024/03/28 10:14:35;;;;;;;;;;;;;;;10.65;68.15;97701.81;131294;1298;22575;-86
2024/03/28 10:18:02;;;;;;;;;;;;;;;10.63;68.00;97713.06;130700;1301;25476;-87
2024/03/28 10:21:17;;;;;;;;;;;;;;;;;;;;;
2024/03/28 10:33:01;;;;;;;;;;;;;;;;;;;;;
2024/03/28 10:36:49;;;;;;;;;;;;;;;;;;;;;
2024/03/28 10:40:44;;;;;;;;;;;;;;;;;;;;;
2024/03/28 10:53:10;;;;;;;;;;;;;;;;;;;;;
2024/03/28 10:56:54;;;;;;;;;;;;;;;10.96;67.15;97742.27;130839;1298;24043;-84
2024/03/28 11:00:12;;;;;;;;;;;;;;;;;;;;;
2024/03/28 11:08:04;;;;;;;;;;;;;;;;;;;;;
2024/03/28 11:11:44;;;;;;;;;;;;;;;;;;;;;
2024/03/28 11:22:45;;;;;;;;;;;;;;;11.25;65.83;97776.33;130625;1300;23864;-88
2024/03/28 11:30:13;;;;;;;;;;;;;;;;;;;;;
2024/03/28 11:34:05;;;;;;;;;;;;;;;11.37;65.29;97790.11;130972;1301;22546;-85
2024/03/28 11:37:52;;;;;;;;;;;;;;;;;;;;;
2024/03/28 11:40:55;;;;;;;;;;;;;;;11.58;64.95;97795.77;130931;1301;25447;-83
2024/03/28 11:44:09;;;;;;;;;;;;;;;;;;;;;
2024/03/28 11:47:33;;;;;;;;;;;;;;;11.82;64.60;97810.84;130436;1301;23017;-83
2024/03/28 11:55:02;;;;;;;;;;;;;;;12.20;63.68;97811.65;130653;1299;22551;-85
2024/03/28 11:58:31;;;;;;;;;;;;;;;12.42;62.96;97814.34;130785;1299;23302;-86
2024/03/28 12:02:35;;;;;;;;;;;;;;;12.79;62.17;97824.66;130688;1304;25429;-87
2024/03/28 12:09:41;;;;;;;;;;;;;;;13.93;60.72;97796.06;130985;1297;22626;-85
2024/03/28 12:13:18;;;;;;;;;;;;;;;;;;;;;
2024/03/28 12:17:01;;;;;;;;;;;;;;;;;;;;;
2024/03/28 12:28:06;;;;;;;;;;;;;;;14.24;56.57;97825.15;130952;1299;23361;-83
2024/03/28 12:39:34;;;;;;;;;;;;;;;;;;;;;
2024/03/28 12:43:12;;;;;;;;;;;;;;;;;;;;;
2024/03/28 12:46:50;;;;;;;;;;;;;;;;;;;;;
2024/03/28 12:50:33;;;;;;;;;;;;;;;13.95;53.41;97846.00;130798;1300;22800;-84
2024/03/28 12:53:56;;;;;;;;;;;;;;;13.89;53.29;97838.39;130559;1299;22570;-86
2024/03/28 12:57:00;;;;;;;;;;;;;;;13.81;52.46;97847.98;130842;1299;22575;-87
2024/03/28 13:00:03;;;;;;;;;;;;;;;13.70;51.35;97851.48;130871;1300;23006;-87
2024/03/28 13:07:25;;;;;;;;;;;;;;;13.72;51.79;97854.22;130070;1300;22638;-87
2024/03/28 13:10:50;;;;;;;;;;;;;;;14.06;51.94;97854.48;130552;1291;22581;-84
2024/03/28 13:13:53;;;;;;;;;;;;;;;14.54;51.63;97858.83;130561;1303;24245;-86
2024/03/28 13:17:04;;;;;;;;;;;;;;;14.89;50.96;97852.77;130861;1307;25416;-85
2024/03/28 13:21:01;;;;;;;;;;;;;;;;;;;;;
2024/03/28 13:24:36;;;;;;;;;;;;;;;15.16;48.32;97874.11;131039;1298;24184;-86
2024/03/28 13:27:53;;;;;;;;;;;;;;;;;;;;;
2024/03/28 13:31:35;;;;;;;;;;;;;;;15.19;47.55;97888.73;130600;1301;23340;-85
2024/03/28 13:34:45;;;;;;;;;;;;;;;15.33;47.23;97876.10;130717;1301;24271;-86
2024/03/28 13:38:05;;;;;;;;;;;;;;;;;;;;;
2024/03/28 13:41:19;;;;;;;;;;;;;;;;;;;;;
2024/03/28 13:45:10;;;;;;;;;;;;;;;15.22;45.39;97883.43;130731;1298;24236;-86
2024/03/28 13:52:41;;;;;;;;;;;;;;;;;;;;;
2024/03/28 13:56:01;;;;;;;;;;;;;;;15.35;43.41;97885.32;130963;1298;23058;-85
2024/03/28 13:59:04;;;;;;;;;;;;;;;15.33;43.76;97891.83;130502;1303;24225;-85
2024/03/28 14:07:17;;;;;;;;;;;;;;;;;;;;;
2024/03/28 14:15:26;;;;;;;;;;;;;;;;;;;;;
2024/03/28 14:22:50;;;;;;;;;;;;;;;;;;;;;
2024/03/28 14:26:53;;;;;;;;;;;;;;;;;;;;;
2024/03/28 14:30:45;;;;;;;;;;;;;;;;;;;;;
2024/03/28 14:34:54;;;;;;;;;;;;;;;15.16;40.85;97893.92;129712;1305;23184;-84
2024/03/28 14:38:28;;;;;;;;;;;;;;;15.18;40.53;97892.90;130435;1300;22677;-86
2024/03/28 14:56:47;;;;;;;;;;;;;;;15.18;40.51;97926.60;130189;1300;22919;-87
2024/03/28 15:00:43;;;;;;;;;;;;;;;;;;;;;
2024/03/28 15:04:21;;;;;;;;;;;;;;;15.15;40.72;97932.27;130401;1306;24805;-85
2024/03/28 15:08:18;;;;;;;;;;;;;;;;;;;;;
2024/03/28 15:11:39;;;;;;;;;;;;;;;15.17;41.01;97932.89;130521;1307;22535;-87
2024/03/28 15:15:17;;;;;;;;;;;;;;;15.19;41.14;97935.48;130555;1307;22978;-86
2024/03/28 15:22:20;;;;;;;;;;;;;;;;;;;;;
2024/03/28 15:26:05;;;;;;;;;;;;;;;15.10;40.41;97950.98;130424;1300;23682;-84
2024/03/28 15:29:38;;;;;;;;;;;;;;;;;;;;;
2024/03/28 15:32:59;;;;;;;;;;;;;;;15.01;39.01;97955.24;130750;1298;24349;-86
2024/03/28 15:36:26;;;;;;;;;;;;;;;14.91;38.77;97958.10;130452;1305;22548;-86
2024/03/28 15:39:34;;;;;;;;;;;;;;;14.80;39.18;97967.83;130131;1301;27722;-85
2024/03/28 15:42:51;;;;;;;;;;;;;;;14.72;39.74;97983.48;130539;1300;22535;-85
2024/03/28 15:46:05;;;;;;;;;;;;;;;14.63;39.61;97991.04;130463;1302;22534;-85
2024/03/28 15:49:44;;;;;;;;;;;;;;;14.61;39.78;97992.39;130070;1310;22634;-85
2024/03/28 15:53:18;;;;;;;;;;;;;;;;;;;;;
2024/03/28 16:01:08;;;;;;;;;;;;;;;14.46;40.31;98019.82;129548;1312;22499;-85
2024/03/28 16:04:35;;;;;;;;;;;;;;;14.40;40.51;98025.28;129874;1298;22591;-84
2024/03/28 16:07:49;;;;;;;;;;;;;;;14.32;40.89;98028.46;130435;1300;22567;-85
2024/03/28 16:15:21;;;;;;;;;;;;;;;;;;;;;
2024/03/28 16:27:15;;;;;;;;;;;;;;;;;;;;;
2024/03/28 16:31:06;;;;;;;;;;;;;;;;;;;;;
2024/03/28 16:34:50;;;;;;;;;;;;;;;14.04;42.48;98031.52;130531;1298;22622;-84
2024/03/28 16:38:10;;;;;;;;;;;;;;;13.96;42.63;98029.02;130696;1298;22600;-85
2024/03/28 16:45:01;;;;;;;;;;;;;;;13.84;43.03;98029.44;130522;1298;22554;-85
2024/03/28 16:57:17;;;;;;;;;;;;;;;;;;;;;
2024/03/28 17:01:06;;;;;;;;;;;;;;;;;;;;;
2024/03/28 17:04:14;;;;;;;;;;;;;;;13.58;43.78;98049.80;130037;1306;22606;-84
2024/03/28 17:07:14;;;;;;;;;;;;;;;13.53;43.94;98046.96;130629;1301;22793;-82
2024/03/28 17:11:03;;;;;;;;;;;;;;;13.45;44.12;98048.98;130499;1291;23021;-83
2024/03/28 17:14:10;;;;;;;;;;;;;;;13.36;44.41;98055.57;130706;1301;22541;-84
2024/03/28 17:17:28;;;;;;;;;;;;;;;;;;;;;
2024/03/28 17:21:21;;;;;;;;;;;;;;;13.21;44.66;98055.77;130353;1301;24271;-84
2024/03/28 17:24:49;;;;;;;;;;;;;;;13.17;44.78;98064.95;130236;1298;22579;-82
2024/03/28 17:28:15;;;;;;;;;;;;;;;;;;;;;
2024/03/28 17:31:34;;;;;;;;;;;;;;;13.11;44.90;98077.91;130489;1300;22577;-83
2024/03/28 17:34:55;;;;;;;;;;;;;;;13.12;44.87;98084.70;130603;1298;22547;-84
2024/03/28 17:38:23;;;;;;;;;;;;;;;13.13;44.88;98093.98;130432;1298;23057;-83
2024/03/28 17:41:41;;;;;;;;;;;;;;;13.12;45.00;98103.92;130508;1298;22593;-83
2024/03/28 17:53:45;;;;;;;;;;;;;;;12.93;45.98;98135.00;130290;1301;26655;-83
2024/03/28 17:57:44;;;;;;;;;;;;;;;;;;;;;
2024/03/28 18:05:42;;;;;;;;;;;;;;;12.53;46.81;98157.98;130421;1298;22638;-86
2024/03/28 18:13:06;;;;;;;;;;;;;;;12.31;47.07;98184.54;130080;1306;22539;-83
2024/03/28 18:16:41;;;;;;;;;;;;;;;12.24;47.44;98190.23;130488;1306;23922;-86
2024/03/28 18:19:43;;;;;;;;;;;;;;;12.15;47.91;98188.35;130626;1306;22538;-86
2024/03/28 18:22:55;;;;;;;;;;;;;;;12.04;48.16;98192.36;130751;1301;24144;-86
2024/03/28 18:26:07;;;;;;;;;;;;;;;11.95;48.49;98202.82;130440;1301;22552;-84
2024/03/28 18:29:33;;;;;;;;;;;;;;;;;;;;;
2024/03/28 18:32:54;;;;;;;;;;;;;;;11.76;48.98;98213.14;130791;1298;22595;-86
2024/03/28 18:48:56;;;;;;;;;;;;;;;;;;;;;
2024/03/28 18:52:00;;;;;;;;;;;;;;;11.34;50.33;98265.26;130404;1303;22573;-86
2024/03/28 18:55:32;;;;;;;;;;;;;;;;;;;;;
2024/03/28 18:58:32;;;;;;;;;;;;;;;11.25;50.80;98283.83;130715;1303;22553;-88
2024/03/28 19:01:44;;;;;;;;;;;;;;;11.21;50.98;98282.86;130528;1298;22537;-86
2024/03/28 19:04:48;;;;;;;;;;;;;;;11.19;51.00;98283.55;130579;1304;23374;-88
2024/03/28 19:08:01;;;;;;;;;;;;;;;;;;;;;
2024/03/28 19:11:12;;;;;;;;;;;;;;;11.14;51.19;98292.64;130550;1299;24277;-87
2024/03/28 19:14:30;;;;;;;;;;;;;;;11.13;51.34;98303.69;130761;1305;22610;-87
2024/03/28 19:17:31;;;;;;;;;;;;;;;11.11;51.27;98310.52;130669;1298;24045;-84
2024/03/28 19:28:09;;;;;;;;;;;;;;;11.06;51.31;98311.45;130875;1306;22650;-85
2024/03/28 19:31:30;;;;;;;;;;;;;;;11.03;51.21;98314.80;130408;1304;22655;-87
2024/03/28 19:34:34;;;;;;;;;;;;;;;11.00;51.23;98319.92;130939;1298;22570;-85
2024/03/28 19:37:35;;;;;;;;;;;;;;;10.98;51.35;98329.98;130637;1298;22559;-84
2024/03/28 19:40:40;;;;;;;;;;;;;;;10.95;51.39;98331.46;130681;1305;23929;-85
2024/03/28 19:43:40;;;;;;;;;;;;;;;10.91;51.55;98337.77;130577;1300;23301;-87
2024/03/28 19:46:41;;;;;;;;;;;;;;;10.87;51.59;98341.58;130824;1301;24307;-86
2024/03/28 19:49:42;;;;;;;;;;;;;;;10.85;51.61;98348.91;130561;1301;25407;-87
2024/03/28 19:52:53;;;;;;;;;;;;;;;10.83;51.90;98356.17;130559;1298;25370;-86
2024/03/28 19:55:53;;;;;;;;;;;;;;;10.80;51.88;98351.63;130539;1306;22579;-85
2024/03/28 19:58:56;;;;;;;;;;;;;;;10.76;51.77;98341.98;130725;1305;22575;-87
2024/03/28 20:01:59;;;;;;;;;;;;;;;10.75;51.78;98334.74;130684;1300;24301;-85
2024/03/28 20:05:23;;;;;;;;;;;;;;;10.69;51.81;98325.43;130586;1299;24128;-86
2024/03/28 20:08:26;;;;;;;;;;;;;;;10.65;51.55;98312.96;130549;1299;26612;-85
2024/03/28 20:11:32;;;;;;;;;;;;;;;10.62;51.44;98317.91;130720;1299;22553;-86
2024/03/28 20:14:35;;;;;;;;;;;;;;;10.59;51.51;98315.97;130586;1299;22685;-85
2024/03/28 20:17:37;;;;;;;;;;;;;;;10.54;51.40;98318.80;130638;1301;23377;-85
2024/03/28 20:20:37;;;;;;;;;;;;;;;10.53;51.21;98320.95;130480;1305;23023;-87
2024/03/28 20:23:38;;;;;;;;;;;;;;;10.53;51.15;98327.48;130416;1305;22538;-84
2024/03/28 20:26:39;;;;;;;;;;;;;;;10.51;51.06;98337.27;130517;1305;22595;-85
2024/03/28 20:29:40;;;;;;;;;;;;;;;10.50;51.10;98345.58;130724;1301;24270;-88
2024/03/28 20:32:44;;;;;;;;;;;;;;;10.47;50.96;98346.70;130574;1299;22573;-87
2024/03/28 20:35:44;;;;;;;;;;;;;;;10.45;51.02;98349.39;130673;1298;22744;-86
2024/03/28 20:38:46;;;;;;;;;;;;;;;10.43;51.17;98358.53;130632;1305;22624;-85
2024/03/28 20:41:50;;;;;;;;;;;;;;;10.40;51.23;98361.48;130514;1301;22620;-85
2024/03/28 20:44:51;;;;;;;;;;;;;;;10.35;51.30;98367.61;130632;1301;25331;-86
2024/03/28 20:47:52;;;;;;;;;;;;;;;10.32;51.26;98369.25;130568;1302;22545;-85
2024/03/28 20:50:52;;;;;;;;;;;;;;;10.28;51.43;98374.02;130511;1298;22541;-88
2024/03/28 20:53:53;;;;;;;;;;;;;;;10.24;51.66;98376.98;130655;1303;22578;-88
2024/03/28 20:57:01;;;;;;;;;;;;;;;10.19;51.81;98379.16;130373;1305;24473;-86
2024/03/28 21:00:10;;;;;;;;;;;;;;;10.15;51.90;98383.69;130589;1298;22580;-85
2024/03/28 21:04:36;;;;;;;;;;;;;;;10.13;52.10;98393.52;130077;1304;22556;-86
2024/03/28 21:11:26;;;;;;;;;;;;;;;10.06;52.65;98405.88;130501;1297;22603;-87
2024/03/28 21:14:28;;;;;;;;;;;;;;;10.04;52.64;98412.45;130348;1305;24023;-87
2024/03/28 21:17:29;;;;;;;;;;;;;;;10.00;52.97;98420.55;130759;1304;25367;-87
2024/03/28 21:20:35;;;;;;;;;;;;;;;9.96;53.33;98429.36;130781;1301;24317;-85
2024/03/28 21:23:38;;;;;;;;;;;;;;;9.94;53.51;98438.48;130558;1301;25375;-87
2024/03/28 21:26:40;;;;;;;;;;;;;;;9.91;53.77;98437.92;130681;1298;22619;-87
2024/03/28 21:29:41;;;;;;;;;;;;;;;9.88;53.91;98450.67;130713;1304;22539;-87
2024/03/28 21:32:42;;;;;;;;;;;;;;;9.85;54.29;98459.06;130747;1300;22539;-84
2024/03/28 21:35:43;;;;;;;;;;;;;;;9.81;54.32;98466.98;130628;1300;24447;-86
2024/03/28 21:38:45;;;;;;;;;;;;;;;9.78;54.51;98466.64;130475;1304;24239;-85
2024/03/28 21:41:46;;;;;;;;;;;;;;;9.74;54.82;98470.70;130632;1297;25444;-83
2024/03/28 21:44:49;;;;;;;;;;;;;;;9.70;55.19;98478.71;130377;1298;22790;-84
2024/03/28 21:47:55;;;;;;;;;;;;;;;9.67;55.35;98484.75;130346;1298;22537;-87
2024/03/28 21:50:59;;;;;;;;;;;;;;;9.65;55.57;98491.27;130617;1304;22677;-83
2024/03/28 21:54:02;;;;;;;;;;;;;;;9.64;55.95;98492.94;130702;1298;25241;-86
2024/03/28 21:57:03;;;;;;;;;;;;;;;9.61;56.16;98499.31;130515;1305;22640;-84
2024/03/28 22:00:06;;;;;;;;;;;;;;;9.57;56.34;98499.84;130498;1302;23356;-86
2024/03/28 22:03:11;;;;;;;;;;;;;;;9.54;56.65;98511.16;130699;1298;22567;-84
2024/03/28 22:06:12;;;;;;;;;;;;;;;9.52;57.03;98509.69;130378;1304;22627;-87
2024/03/28 22:09:13;;;;;;;;;;;;;;;9.49;57.09;98519.20;130675;1304;23821;-87
2024/03/28 22:12:16;;;;;;;;;;;;;;;9.47;57.30;98521.08;130497;1304;22700;-88
2024/03/28 22:15:17;;;;;;;;;;;;;;;9.44;57.48;98525.98;130650;1305;22557;-85
2024/03/28 22:18:18;;;;;;;;;;;;;;;9.41;57.48;98524.92;130388;1306;25314;-86
2024/03/28 22:21:19;;;;;;;;;;;;;;;9.40;57.70;98524.06;130584;1304;24289;-85
2024/03/28 22:24:20;;;;;;;;;;;;;;;9.36;57.89;98529.63;130382;1304;26536;-85
2024/03/28 22:27:20;;;;;;;;;;;;;;;9.34;58.05;98536.66;130501;1298;24239;-87
2024/03/28 22:30:41;;;;;;;;;;;;;;;9.30;58.31;98554.23;126552;1305;5416061;-84
2024/03/28 22:33:52;;;;;;;;;;;;;;;9.27;58.28;98555.54;130712;1303;22574;-86
2024/03/28 22:36:52;;;;;;;;;;;;;;;9.24;58.51;98557.55;130490;1301;24049;-87
2024/03/28 22:39:53;;;;;;;;;;;;;;;9.19;58.68;98571.40;130279;1305;24753;-86
2024/03/28 22:42:54;;;;;;;;;;;;;;;9.15;58.66;98575.48;130622;1304;22636;-86
2024/03/28 22:45:58;;;;;;;;;;;;;;;9.11;58.90;98577.50;130661;1298;24389;-87
2024/03/28 22:49:56;;;;;;;;;;;;;;;9.04;59.01;98579.30;129853;1307;22933;-86
2024/03/28 22:52:54;;;;;;;;;;;;;;;8.98;59.09;98587.77;129922;1305;25321;-87
2024/03/28 22:56:08;;;;;;;;;;;;;;;;;;;;;
2024/03/28 23:00:05;;;;;;;;;;;;;;;;;;;;;
2024/03/28 23:03:57;;;;;;;;;;;;;;;;;;;;;
2024/03/28 23:07:48;;;;;;;;;;;;;;;8.67;59.77;98621.63;130628;1306;24207;-85
2024/03/28 23:11:24;;;;;;;;;;;;;;;;;;;;;
2024/03/28 23:14:32;;;;;;;;;;;;;;;8.49;60.11;98637.59;130541;1304;23354;-87
2024/03/28 23:17:33;;;;;;;;;;;;;;;8.42;60.33;98646.55;130558;1306;25712;-85
2024/03/28 23:21:11;;;;;;;;;;;;;;;;;;;;;
2024/03/28 23:24:39;;;;;;;;;;;;;;;8.25;60.84;98668.08;130762;1305;22542;-86
2024/03/28 23:28:11;;;;;;;;;;;;;;;8.17;61.07;98677.88;130670;1298;25442;-88
2024/03/28 23:31:25;;;;;;;;;;;;;;;8.12;61.22;98684.28;130828;1305;22620;-85
2024/03/28 23:35:02;;;;;;;;;;;;;;;;;;;;;
2024/03/28 23:42:34;;;;;;;;;;;;;;;;;;;;;
2024/03/28 23:47:15;;;;;;;;;;;;;;;7.89;62.20;98722.98;130549;1304;22786;-85
2024/03/28 23:57:36;;;;;;;;;;;;;;;7.70;62.92;98732.07;130460;1298;22560;-84
